Time;durP1;ratioP1;P1;durP2;ratioP2;P2;SDS_P1;SDS_P2;PMS_P1;PMS_P2;Temp;Humidity;BMP_temperature;BMP_pressure;BME280_temperature;BME280_humidity;BME280_pressure;Samples;Min_cycle;Max_cycle;Signal;HPM_P1;HPM_P2
2023/08/18 00:00:20;;;;;;;2.60;1.10;;;18.90;96.60;;;;;;5034077;28;20050;-78
2023/08/18 00:02:46;;;;;;;2.05;1.10;;;19.00;96.70;;;;;;5034327;28;20443;-78
2023/08/18 00:05:11;;;;;;;4.18;1.20;;;18.90;96.60;;;;;;5052538;28;20049;-77
2023/08/18 00:07:37;;;;;;;3.85;1.10;;;19.00;96.70;;;;;;5032996;28;20056;-78
2023/08/18 00:10:04;;;;;;;2.67;1.17;;;18.90;96.70;;;;;;5034187;28;20519;-78
2023/08/18 00:12:29;;;;;;;2.95;0.90;;;18.90;96.80;;;;;;5033884;28;20041;-78
2023/08/18 00:14:55;;;;;;;2.72;1.05;;;18.90;96.70;;;;;;5049823;28;20538;-78
2023/08/18 00:17:21;;;;;;;1.92;0.88;;;18.90;96.70;;;;;;5033858;28;20253;-78
2023/08/18 00:19:47;;;;;;;2.28;1.00;;;18.80;96.70;;;;;;5034291;28;20454;-78
2023/08/18 00:22:13;;;;;;;2.28;1.08;;;18.80;97.10;;;;;;5033814;28;20049;-78
2023/08/18 00:24:38;;;;;;;2.83;1.17;;;18.80;96.80;;;;;;5034013;28;20048;-78
2023/08/18 00:27:04;;;;;;;3.20;1.10;;;18.80;96.70;;;;;;5049192;28;20147;-78
2023/08/18 00:29:30;;;;;;;2.08;0.98;;;18.80;96.70;;;;;;5033964;28;20052;-78
2023/08/18 00:31:56;;;;;;;2.65;1.00;;;18.80;96.70;;;;;;5032550;28;20059;-78
2023/08/18 00:34:21;;;;;;;3.33;1.13;;;18.80;96.80;;;;;;5034067;28;20049;-78
2023/08/18 00:36:47;;;;;;;2.50;0.90;;;18.70;96.60;;;;;;5032404;28;20060;-77
2023/08/18 00:39:16;;;;;;;2.70;1.02;;;18.70;96.60;;;;;;5033917;28;20069;-78
2023/08/18 00:41:45;;;;;;;2.75;0.98;;;18.70;96.70;;;;;;5032370;28;20511;-78
2023/08/18 00:44:10;;;;;;;3.38;1.20;;;18.70;96.60;;;;;;5035763;28;20052;-77
2023/08/18 00:46:37;;;;;;;3.15;1.05;;;18.70;96.60;;;;;;5044811;28;20391;-78
2023/08/18 00:49:05;;;;;;;2.53;0.80;;;18.70;96.60;;;;;;5031620;28;20033;-77
2023/08/18 00:51:33;;;;;;;1.75;0.90;;;18.70;96.40;;;;;;5033631;28;20045;-78
2023/08/18 00:53:59;;;;;;;2.35;1.00;;;18.60;96.30;;;;;;5030765;28;20057;-77
2023/08/18 00:56:25;;;;;;;3.03;1.20;;;18.60;96.60;;;;;;5032701;28;20558;-78
2023/08/18 00:58:51;;;;;;;3.15;1.10;;;18.60;96.70;;;;;;5032425;28;20057;-78
2023/08/18 01:01:17;;;;;;;2.50;0.93;;;18.60;96.70;;;;;;5033102;28;20128;-78
2023/08/18 01:03:44;;;;;;;2.70;1.08;;;18.60;96.90;;;;;;5031649;28;20116;-78
2023/08/18 01:06:09;;;;;;;3.90;1.20;;;18.60;97.00;;;;;;5032788;28;20046;-78
2023/08/18 01:08:36;;;;;;;2.92;1.00;;;18.60;97.00;;;;;;5032960;28;20091;-78
2023/08/18 01:11:31;;;;;;;3.08;1.08;;;18.60;97.00;;;;;;5031608;28;20098;-78
2023/08/18 01:14:14;;;;;;;2.22;1.00;;;18.60;96.80;;;;;;5033391;28;20053;-78
2023/08/18 01:16:47;;;;;;;2.45;0.98;;;18.60;97.10;;;;;;5032936;28;20045;-78
2023/08/18 01:19:15;;;;;;;3.67;1.00;;;18.50;97.20;;;;;;5048161;28;20503;-78
2023/08/18 01:21:43;;;;;;;2.58;1.10;;;18.50;97.20;;;;;;5033397;28;20056;-78
2023/08/18 01:24:09;;;;;;;2.05;1.00;;;18.60;97.30;;;;;;5052596;28;20604;-78
2023/08/18 01:26:34;;;;;;;2.05;0.98;;;18.50;97.20;;;;;;5036326;28;20129;-78
2023/08/18 01:29:00;;;;;;;2.90;1.00;;;18.60;97.10;;;;;;5052937;28;20095;-78
2023/08/18 01:31:30;;;;;;;2.75;1.08;;;18.50;97.20;;;;;;5032630;28;20045;-78
2023/08/18 01:34:04;;;;;;;2.80;0.93;;;18.50;97.20;;;;;;5031827;28;20491;-78
2023/08/18 01:36:37;;;;;;;2.60;1.00;;;18.50;97.30;;;;;;5031795;28;20060;-78
2023/08/18 01:39:05;;;;;;;3.35;1.20;;;18.50;97.40;;;;;;5040092;28;20044;-78
2023/08/18 01:41:31;;;;;;;3.50;1.08;;;18.50;97.30;;;;;;5046477;28;20073;-77
2023/08/18 01:43:59;;;;;;;3.17;1.10;;;18.50;97.30;;;;;;5048339;28;20415;-78
2023/08/18 01:46:25;;;;;;;2.03;0.80;;;18.50;97.30;;;;;;5037800;28;20060;-78
2023/08/18 01:48:50;;;;;;;2.75;1.00;;;18.40;97.30;;;;;;5032398;28;20407;-78
2023/08/18 01:51:16;;;;;;;4.60;1.20;;;18.50;97.30;;;;;;5032531;28;20057;-78
2023/08/18 01:53:41;;;;;;;3.35;1.10;;;18.40;97.00;;;;;;5034999;28;20045;-78
2023/08/18 01:56:07;;;;;;;2.65;1.20;;;18.50;97.20;;;;;;5032421;28;20064;-77
2023/08/18 01:58:33;;;;;;;4.03;1.02;;;18.40;97.30;;;;;;5031954;28;20054;-78
2023/08/18 02:00:58;;;;;;;3.03;1.17;;;18.50;97.30;;;;;;5032448;28;20454;-78
2023/08/18 02:03:26;;;;;;;2.70;1.10;;;18.40;97.20;;;;;;5032656;28;20057;-78
2023/08/18 02:06:01;;;;;;;2.72;1.02;;;18.40;97.10;;;;;;5048210;28;20088;-78
2023/08/18 02:08:26;;;;;;;2.75;1.00;;;18.40;97.00;;;;;;5030731;28;20121;-79
2023/08/18 02:10:52;;;;;;;2.55;1.00;;;18.40;97.10;;;;;;5036037;28;20120;-79
2023/08/18 02:13:18;;;;;;;2.85;1.20;;;18.40;97.10;;;;;;5031574;28;20048;-79
2023/08/18 02:15:46;;;;;;;3.20;1.40;;;18.40;97.00;;;;;;5032779;28;20057;-79
2023/08/18 02:18:12;;;;;;;4.05;1.23;;;18.40;96.90;;;;;;5032521;28;20049;-79
2023/08/18 02:20:38;;;;;;;2.80;1.00;;;18.40;97.10;;;;;;5032718;28;20053;-79
2023/08/18 02:23:04;;;;;;;3.55;1.17;;;18.40;97.00;;;;;;5032605;28;20046;-79
2023/08/18 02:25:30;;;;;;;3.30;1.30;;;18.30;97.10;;;;;;5032779;28;20133;-79
2023/08/18 02:27:56;;;;;;;2.80;1.00;;;18.30;97.10;;;;;;5033487;28;20120;-79
2023/08/18 02:30:22;;;;;;;2.78;1.00;;;18.30;97.10;;;;;;5033411;28;20541;-79
2023/08/18 02:32:47;;;;;;;4.07;1.20;;;18.30;97.10;;;;;;5035260;28;20050;-78
2023/08/18 02:35:13;;;;;;;3.85;1.30;;;18.30;97.20;;;;;;5036322;28;20049;-78
2023/08/18 02:37:39;;;;;;;2.85;1.30;;;18.30;97.30;;;;;;5035146;28;20488;-77
2023/08/18 02:40:06;;;;;;;2.97;0.93;;;18.20;97.20;;;;;;5033765;28;20041;-78
2023/08/18 02:42:33;;;;;;;3.60;1.38;;;18.20;97.20;;;;;;5039143;28;20083;-78
2023/08/18 02:44:59;;;;;;;3.40;1.17;;;18.20;97.30;;;;;;5034763;28;20082;-78
2023/08/18 02:47:26;;;;;;;4.03;1.33;;;18.20;97.30;;;;;;5034881;28;20446;-78
2023/08/18 02:49:52;;;;;;;3.25;1.40;;;18.30;97.40;;;;;;5035228;28;20064;-78
2023/08/18 02:52:17;;;;;;;3.10;1.17;;;18.20;97.30;;;;;;5035250;28;20396;-79
2023/08/18 02:54:43;;;;;;;4.07;1.40;;;18.20;97.30;;;;;;5038334;28;20052;-79
2023/08/18 02:57:09;;;;;;;5.47;1.80;;;18.20;97.20;;;;;;5035429;28;20045;-79
2023/08/18 02:59:34;;;;;;;3.55;1.40;;;18.20;97.10;;;;;;5035167;28;20148;-77
2023/08/18 03:02:00;;;;;;;3.63;1.40;;;18.20;97.20;;;;;;5038732;28;20450;-79
2023/08/18 03:04:26;;;;;;;4.18;1.45;;;18.20;97.30;;;;;;5035349;28;20045;-79
2023/08/18 03:06:51;;;;;;;4.07;1.50;;;18.10;97.30;;;;;;5035317;28;20398;-79
2023/08/18 03:09:17;;;;;;;4.68;1.85;;;18.10;97.30;;;;;;5035438;28;20045;-79
2023/08/18 03:11:43;;;;;;;3.05;1.35;;;18.20;97.20;;;;;;5034420;28;20053;-79
2023/08/18 03:14:08;;;;;;;3.92;1.50;;;18.10;97.10;;;;;;5035067;28;20049;-79
2023/08/18 03:16:34;;;;;;;4.25;1.63;;;18.10;97.30;;;;;;5035103;28;20077;-79
2023/08/18 03:19:00;;;;;;;5.65;1.90;;;18.10;97.30;;;;;;5035244;28;20076;-78
2023/08/18 03:21:26;;;;;;;4.07;1.60;;;18.10;97.30;;;;;;5035220;28;20056;-79
2023/08/18 03:23:51;;;;;;;3.25;1.58;;;18.10;97.40;;;;;;5035110;28;20503;-79
2023/08/18 03:26:17;;;;;;;4.65;1.92;;;18.10;97.50;;;;;;5017990;28;20053;-79
2023/08/18 03:28:42;;;;;;;4.45;1.55;;;18.10;97.40;;;;;;5035088;28;20132;-79
2023/08/18 03:31:08;;;;;;;4.80;1.73;;;18.10;97.40;;;;;;5034795;28;20052;-79
2023/08/18 03:33:34;;;;;;;4.57;2.00;;;18.10;97.40;;;;;;5034841;28;20045;-79
2023/08/18 03:36:00;;;;;;;4.40;2.00;;;18.10;97.40;;;;;;5034890;28;20045;-79
2023/08/18 03:38:26;;;;;;;5.82;1.98;;;18.10;97.40;;;;;;5043570;28;20097;-79
2023/08/18 03:41:00;;;;;;;5.28;1.70;;;18.10;97.50;;;;;;5034809;28;20041;-79
2023/08/18 03:43:26;;;;;;;6.85;2.30;;;18.10;97.50;;;;;;5033529;28;20048;-78
2023/08/18 03:45:51;;;;;;;4.45;1.80;;;18.10;97.40;;;;;;5034835;28;20041;-79
2023/08/18 03:48:17;;;;;;;7.78;2.20;;;18.10;97.50;;;;;;5034301;28;20057;-79
2023/08/18 03:50:43;;;;;;;4.35;1.80;;;18.10;97.60;;;;;;5034388;28;20128;-79
2023/08/18 03:53:08;;;;;;;5.15;1.95;;;18.10;97.60;;;;;;5033633;28;20037;-79
2023/08/18 03:55:34;;;;;;;4.45;1.98;;;18.10;97.90;;;;;;5034563;28;20041;-79
2023/08/18 03:57:59;;;;;;;5.35;2.00;;;18.10;97.50;;;;;;5033096;28;20049;-79
2023/08/18 04:00:25;;;;;;;4.00;1.63;;;18.10;97.50;;;;;;5034467;28;20107;-79
2023/08/18 04:02:51;;;;;;;5.05;2.10;;;18.10;97.50;;;;;;5034910;28;20088;-79
2023/08/18 04:05:16;;;;;;;4.80;1.98;;;18.10;97.50;;;;;;5017887;28;20056;-79
2023/08/18 04:07:42;;;;;;;4.10;1.77;;;18.10;97.60;;;;;;5043174;28;20084;-79
2023/08/18 04:10:08;;;;;;;4.13;1.70;;;18.10;97.60;;;;;;5034257;28;20049;-79
2023/08/18 04:12:34;;;;;;;6.40;1.83;;;18.10;97.60;;;;;;5034488;28;20045;-79
2023/08/18 04:15:00;;;;;;;3.88;1.75;;;18.10;97.60;;;;;;5032779;28;20052;-79
2023/08/18 04:17:25;;;;;;;3.47;1.70;;;18.10;97.60;;;;;;5033717;28;20038;-79
2023/08/18 04:19:51;;;;;;;5.95;2.20;;;18.00;97.50;;;;;;5037768;28;20066;-78
2023/08/18 04:22:17;;;;;;;4.00;1.90;;;18.00;97.50;;;;;;5034405;28;20049;-79
2023/08/18 04:24:43;;;;;;;5.57;2.00;;;18.10;97.50;;;;;;5033391;28;20188;-78
2023/08/18 04:27:08;;;;;;;3.47;1.80;;;18.00;97.40;;;;;;5033005;28;20452;-78
2023/08/18 04:29:35;;;;;;;5.03;1.95;;;18.10;97.60;;;;;;5033450;28;20143;-78
2023/08/18 04:32:00;;;;;;;5.93;1.92;;;18.00;97.60;;;;;;5033783;28;20041;-79
2023/08/18 04:34:29;;;;;;;4.55;1.98;;;18.00;97.60;;;;;;5032493;28;20136;-78
2023/08/18 04:36:55;;;;;;;5.45;2.20;;;18.00;97.60;;;;;;5032315;28;20116;-78
2023/08/18 04:39:21;;;;;;;4.00;2.00;;;18.00;97.60;;;;;;5033780;28;20081;-79
2023/08/18 04:41:46;;;;;;;4.90;1.80;;;18.00;97.60;;;;;;5033594;28;20154;-79
2023/08/18 04:44:12;;;;;;;4.18;1.85;;;18.00;97.50;;;;;;5049590;28;20049;-79
2023/08/18 04:46:37;;;;;;;4.68;2.10;;;18.00;97.40;;;;;;5033430;28;20042;-78
2023/08/18 04:49:03;;;;;;;4.38;2.00;;;18.00;97.50;;;;;;5053677;28;20486;-79
2023/08/18 04:51:29;;;;;;;4.93;2.25;;;18.00;97.60;;;;;;5035284;28;20049;-79
2023/08/18 04:53:55;;;;;;;4.75;1.95;;;17.90;97.50;;;;;;5033386;28;20099;-79
2023/08/18 04:56:20;;;;;;;6.45;2.10;;;18.00;97.60;;;;;;5033107;28;20377;-79
2023/08/18 04:58:46;;;;;;;5.25;2.53;;;18.00;97.50;;;;;;5033500;28;20136;-79
2023/08/18 05:01:11;;;;;;;4.28;2.10;;;18.00;97.60;;;;;;5033332;28;20057;-79
2023/08/18 05:03:37;;;;;;;4.55;2.13;;;18.00;97.60;;;;;;5033609;28;20447;-79
2023/08/18 05:06:12;;;;;;;5.05;2.40;;;17.90;97.50;;;;;;5032987;28;20490;-79
2023/08/18 05:08:41;;;;;;;4.68;2.28;;;18.00;97.60;;;;;;5035987;28;20060;-79
2023/08/18 05:11:08;;;;;;;4.47;2.10;;;18.00;97.70;;;;;;5046839;28;20095;-79
2023/08/18 05:13:35;;;;;;;4.47;2.33;;;17.90;97.50;;;;;;5033646;28;20049;-78
2023/08/18 05:16:02;;;;;;;5.93;2.67;;;17.90;97.40;;;;;;5031623;28;20045;-79
2023/08/18 05:18:29;;;;;;;5.10;2.25;;;17.90;97.40;;;;;;5033263;28;20139;-79
2023/08/18 05:20:56;;;;;;;4.60;2.33;;;17.90;97.50;;;;;;5032745;28;20037;-78
2023/08/18 05:23:28;;;;;;;5.32;2.65;;;17.90;97.60;;;;;;5032471;28;20167;-79
2023/08/18 05:25:56;;;;;;;4.82;2.40;;;17.90;97.50;;;;;;5032459;28;20057;-78
2023/08/18 05:28:23;;;;;;;4.47;2.20;;;17.90;97.60;;;;;;5033866;28;20576;-79
2023/08/18 05:30:50;;;;;;;5.45;2.47;;;17.90;97.60;;;;;;5032484;28;20033;-78
2023/08/18 05:33:16;;;;;;;6.03;2.63;;;17.90;97.60;;;;;;5032733;28;20042;-78
2023/08/18 05:35:42;;;;;;;6.13;2.60;;;17.90;97.60;;;;;;5032899;28;20045;-79
2023/08/18 05:38:11;;;;;;;5.43;2.90;;;17.90;97.60;;;;;;5032791;28;20041;-78
2023/08/18 05:40:45;;;;;;;5.10;2.70;;;17.90;97.70;;;;;;5033264;28;20049;-79
2023/08/18 05:43:13;;;;;;;6.82;2.70;;;17.90;97.60;;;;;;5032788;28;20045;-79
2023/08/18 05:45:42;;;;;;;4.70;2.63;;;17.90;97.80;;;;;;5014622;28;20439;-79
2023/08/18 05:48:08;;;;;;;5.30;2.80;;;17.90;97.90;;;;;;5032003;28;20048;-78
2023/08/18 05:50:34;;;;;;;5.68;2.80;;;17.90;97.90;;;;;;5033365;28;20124;-79
2023/08/18 05:53:01;;;;;;;5.45;2.90;;;17.90;97.80;;;;;;5033126;28;20072;-79
2023/08/18 05:55:30;;;;;;;4.55;2.70;;;17.90;97.90;;;;;;5032332;28;20041;-79
2023/08/18 05:58:01;;;;;;;7.80;3.30;;;17.90;97.90;;;;;;5047631;28;20124;-79
2023/08/18 06:00:27;;;;;;;5.85;3.03;;;17.90;97.90;;;;;;5047688;28;20084;-79
2023/08/18 06:02:54;;;;;;;6.60;3.47;;;17.90;98.00;;;;;;5038901;28;20094;-77
2023/08/18 06:05:20;;;;;;;6.57;3.35;;;17.90;97.90;;;;;;5034537;28;20087;-79
2023/08/18 06:07:45;;;;;;;6.43;3.33;;;18.00;97.90;;;;;;5036957;28;20045;-79
2023/08/18 06:10:11;;;;;;;5.00;2.80;;;18.00;97.90;;;;;;5036957;28;20060;-79
2023/08/18 06:12:37;;;;;;;7.28;3.80;;;17.90;97.90;;;;;;5036801;28;20490;-79
2023/08/18 06:15:08;;;;;;;7.30;3.88;;;18.00;98.00;;;;;;5039485;28;20098;-79
2023/08/18 06:17:34;;;;;;;7.90;3.70;;;18.00;98.00;;;;;;5056758;28;20045;-79
2023/08/18 06:20:00;;;;;;;6.00;3.30;;;18.00;98.00;;;;;;5039120;28;20128;-78
2023/08/18 06:22:26;;;;;;;7.95;4.90;;;18.00;98.00;;;;;;5038452;28;20063;-79
2023/08/18 06:24:52;;;;;;;6.65;3.70;;;18.00;98.00;;;;;;5042984;28;20480;-79
2023/08/18 06:27:19;;;;;;;6.55;3.45;;;18.00;98.00;;;;;;5025784;28;20034;-78
2023/08/18 06:29:44;;;;;;;6.55;3.63;;;18.00;98.10;;;;;;5027235;28;20048;-79
2023/08/18 06:32:10;;;;;;;8.73;4.78;;;18.00;98.10;;;;;;5025268;28;20048;-79
2023/08/18 06:34:36;;;;;;;6.78;3.90;;;18.00;98.10;;;;;;5029642;28;20091;-79
2023/08/18 06:37:02;;;;;;;5.25;3.17;;;18.00;98.00;;;;;;5030126;28;20042;-79
2023/08/18 06:39:28;;;;;;;6.13;3.53;;;18.00;98.00;;;;;;5030291;28;20077;-79
2023/08/18 06:41:54;;;;;;;5.80;3.50;;;18.00;98.10;;;;;;5031381;28;20073;-80
2023/08/18 06:44:20;;;;;;;6.47;3.55;;;18.00;98.10;;;;;;5034600;28;20040;-80
2023/08/18 06:46:46;;;;;;;7.63;3.50;;;18.00;98.30;;;;;;5042016;28;20120;-79
2023/08/18 06:49:12;;;;;;;7.55;3.78;;;18.00;98.10;;;;;;5013890;28;20050;-80
2023/08/18 06:51:38;;;;;;;7.53;3.70;;;18.00;98.10;;;;;;5028905;28;20044;-79
2023/08/18 06:54:04;;;;;;;7.63;4.00;;;18.00;98.10;;;;;;5025309;28;20096;-79
2023/08/18 06:56:29;;;;;;;6.90;4.40;;;18.00;98.10;;;;;;5034632;28;20037;-80
2023/08/18 06:58:55;;;;;;;9.23;4.43;;;18.00;98.20;;;;;;5030702;28;20510;-80
2023/08/18 07:01:20;;;;;;;9.70;4.20;;;18.00;98.50;;;;;;5023255;28;20466;-79
2023/08/18 07:03:48;;;;;;;6.70;3.95;;;18.00;98.20;;;;;;5021268;28;20041;-79
2023/08/18 07:06:14;;;;;;;8.40;5.03;;;18.00;98.20;;;;;;5049596;28;20037;-79
2023/08/18 07:08:40;;;;;;;9.02;5.05;;;18.00;98.30;;;;;;5042650;28;20099;-79
2023/08/18 07:11:05;;;;;;;9.48;4.97;;;18.00;98.30;;;;;;5026989;28;20046;-79
2023/08/18 07:13:31;;;;;;;6.82;3.90;;;18.00;98.30;;;;;;5027210;28;20609;-79
2023/08/18 07:15:57;;;;;;;8.00;4.43;;;18.10;98.20;;;;;;5025974;28;20037;-79
2023/08/18 07:18:23;;;;;;;10.45;4.97;;;18.10;98.10;;;;;;5023957;28;20052;-79
2023/08/18 07:20:49;;;;;;;7.53;4.07;;;18.10;98.20;;;;;;5030360;28;20034;-79
2023/08/18 07:23:15;;;;;;;8.23;4.15;;;18.10;98.20;;;;;;5023404;28;20045;-79
2023/08/18 07:25:41;;;;;;;9.27;4.80;;;18.10;98.20;;;;;;5029578;28;20174;-79
2023/08/18 07:28:07;;;;;;;9.68;4.90;;;18.10;98.20;;;;;;5026497;28;20483;-79
2023/08/18 07:30:33;;;;;;;10.93;4.90;;;18.10;98.30;;;;;;5032652;28;20049;-79
2023/08/18 07:32:58;;;;;;;8.20;5.05;;;18.10;98.30;;;;;;5031028;28;20037;-79
2023/08/18 07:35:24;;;;;;;11.40;5.47;;;18.10;98.30;;;;;;5032103;28;20480;-79
2023/08/18 07:37:50;;;;;;;9.38;5.07;;;18.10;98.30;;;;;;5030855;28;20123;-80
2023/08/18 07:40:16;;;;;;;9.85;5.22;;;18.10;98.30;;;;;;5032038;28;20041;-79
2023/08/18 07:42:42;;;;;;;11.10;5.20;;;18.10;98.30;;;;;;5031906;28;20041;-79
2023/08/18 07:45:08;;;;;;;10.15;4.68;;;18.10;98.30;;;;;;5034705;28;20096;-79
2023/08/18 07:47:34;;;;;;;8.65;4.72;;;18.10;98.30;;;;;;5032580;28;20087;-79
2023/08/18 07:50:00;;;;;;;8.63;4.75;;;18.10;98.60;;;;;;5042558;28;20045;-79
2023/08/18 07:52:26;;;;;;;8.35;4.82;;;18.20;98.30;;;;;;5036203;28;20045;-79
2023/08/18 07:54:51;;;;;;;9.88;5.00;;;18.20;98.30;;;;;;5038319;28;20045;-79
2023/08/18 07:57:17;;;;;;;10.25;5.30;;;18.20;98.30;;;;;;5037554;28;20112;-79
2023/08/18 07:59:42;;;;;;;10.13;4.80;;;18.20;98.30;;;;;;4995146;28;1107530;-79
2023/08/18 08:02:08;;;;;;;10.43;4.70;;;18.20;98.30;;;;;;5016862;28;20057;-79
2023/08/18 08:04:34;;;;;;;9.43;5.00;;;18.20;98.30;;;;;;5034090;28;20492;-79
2023/08/18 08:06:59;;;;;;;15.00;6.47;;;18.20;98.40;;;;;;5035371;28;20454;-79
2023/08/18 08:09:26;;;;;;;10.07;5.05;;;18.20;99.00;;;;;;5027508;28;20080;-79
2023/08/18 08:11:53;;;;;;;8.93;4.40;;;18.30;98.90;;;;;;5039415;28;20902;-79
2023/08/18 08:14:19;;;;;;;11.35;5.93;;;18.30;98.70;;;;;;5036700;28;20415;-79
2023/08/18 08:16:45;;;;;;;16.70;6.68;;;18.30;98.80;;;;;;5043891;28;20033;-79
2023/08/18 08:19:11;;;;;;;10.30;4.97;;;18.30;99.30;;;;;;5038983;28;20452;-79
2023/08/18 08:21:38;;;;;;;8.55;4.80;;;18.40;99.10;;;;;;5038978;28;20052;-79
2023/08/18 08:24:04;;;;;;;7.07;4.00;;;18.40;98.70;;;;;;5034089;28;20049;-79
2023/08/18 08:26:30;;;;;;;9.52;4.68;;;18.40;98.50;;;;;;5033438;28;20045;-79
2023/08/18 08:28:56;;;;;;;9.27;4.63;;;18.40;98.50;;;;;;5034298;28;20408;-79
2023/08/18 08:31:21;;;;;;;9.27;4.70;;;18.40;98.50;;;;;;5033680;28;20060;-79
2023/08/18 08:33:47;;;;;;;13.48;5.28;;;18.40;98.40;;;;;;5038289;28;20029;-79
2023/08/18 08:36:13;;;;;;;10.32;4.85;;;18.40;98.50;;;;;;5042574;28;20373;-79
2023/08/18 08:38:38;;;;;;;13.40;5.97;;;18.50;98.50;;;;;;5037667;28;20049;-79
2023/08/18 08:41:04;;;;;;;11.85;5.43;;;18.50;98.50;;;;;;5032776;28;20049;-78
2023/08/18 08:43:30;;;;;;;10.85;5.28;;;18.50;98.60;;;;;;5033239;28;20470;-79
2023/08/18 08:45:58;;;;;;;11.23;5.32;;;18.60;98.80;;;;;;5032087;28;20045;-79
2023/08/18 08:48:31;;;;;;;14.02;6.80;;;18.60;98.80;;;;;;5034301;28;20045;-79
2023/08/18 08:50:58;;;;;;;;;;;18.60;99.20;;;;;;5033379;28;20045;-79
2023/08/18 08:53:35;;;;;;;13.02;5.47;;;18.50;98.50;;;;;;5033770;28;19927;-79
2023/08/18 08:56:02;;;;;;;12.88;5.38;;;18.60;98.90;;;;;;5037814;28;20395;-79
2023/08/18 08:58:32;;;;;;;10.23;5.13;;;18.60;98.90;;;;;;5032029;28;20612;-79
2023/08/18 09:01:00;;;;;;;13.65;6.10;;;18.70;98.80;;;;;;5032030;28;20037;-78
2023/08/18 09:03:27;;;;;;;10.10;4.90;;;18.70;99.20;;;;;;5031335;28;20045;-79
2023/08/18 09:05:54;;;;;;;13.10;5.47;;;18.70;99.00;;;;;;5032876;28;20380;-79
2023/08/18 09:08:20;;;;;;;10.75;4.80;;;18.80;99.00;;;;;;5031043;28;20052;-79
2023/08/18 09:10:46;;;;;;;13.15;5.82;;;18.80;98.70;;;;;;5037671;28;20037;-79
2023/08/18 09:13:12;;;;;;;12.10;5.35;;;18.80;98.90;;;;;;5034679;28;20045;-79
2023/08/18 09:15:44;;;;;;;11.45;5.38;;;18.90;98.90;;;;;;5038118;28;20060;-79
2023/08/18 09:18:16;;;;;;;10.98;5.03;;;18.90;98.80;;;;;;5033956;28;20048;-79
2023/08/18 09:20:43;;;;;;;14.50;6.43;;;19.00;98.60;;;;;;5031547;28;20521;-79
2023/08/18 09:23:08;;;;;;;12.38;5.97;;;19.00;98.90;;;;;;5031557;28;20042;-79
2023/08/18 09:25:34;;;;;;;11.00;5.47;;;19.00;99.00;;;;;;5032620;28;20403;-79
2023/08/18 09:28:03;;;;;;;12.40;5.28;;;19.10;98.70;;;;;;5032465;28;20052;-80
2023/08/18 09:30:30;;;;;;;11.75;5.40;;;19.10;98.60;;;;;;5032116;28;20080;-80
2023/08/18 09:32:59;;;;;;;13.65;6.18;;;19.10;98.70;;;;;;5030990;28;20079;-79
2023/08/18 09:35:25;;;;;;;13.35;6.45;;;19.20;98.80;;;;;;5033251;28;20049;-79
2023/08/18 09:37:57;;;;;;;12.27;5.72;;;19.20;99.10;;;;;;5031908;28;20045;-79
2023/08/18 09:40:24;;;;;;;16.88;6.65;;;19.30;98.70;;;;;;5031195;28;20050;-79
2023/08/18 09:42:50;;;;;;;15.40;7.45;;;19.30;99.20;;;;;;5032204;28;20052;-79
2023/08/18 09:45:17;;;;;;;13.35;6.03;;;19.40;99.90;;;;;;5032443;28;20041;-79
2023/08/18 09:47:44;;;;;;;12.02;5.40;;;19.40;99.70;;;;;;5032463;28;20384;-79
2023/08/18 09:50:10;;;;;;;14.98;6.28;;;19.50;99.00;;;;;;5035253;28;20084;-79
2023/08/18 09:52:38;;;;;;;10.00;5.22;;;19.50;99.00;;;;;;5048037;28;20092;-79
2023/08/18 09:55:12;;;;;;;14.45;6.45;;;19.60;98.60;;;;;;5032239;28;20111;-79
2023/08/18 09:58:06;;;;;;;11.57;6.45;;;19.60;98.80;;;;;;5046615;28;20045;-79
2023/08/18 10:00:33;;;;;;;9.63;5.07;;;19.60;99.10;;;;;;5020906;28;20049;-79
2023/08/18 10:03:03;;;;;;;10.25;5.50;;;19.70;98.90;;;;;;5020519;28;20053;-78
2023/08/18 10:05:29;;;;;;;12.63;6.43;;;19.70;98.80;;;;;;5031648;28;20045;-79
2023/08/18 10:07:55;;;;;;;10.88;5.57;;;19.70;98.80;;;;;;5032392;28;20037;-78
2023/08/18 10:10:22;;;;;;;11.80;5.82;;;19.80;98.40;;;;;;5031815;28;20510;-79
2023/08/18 10:12:50;;;;;;;13.50;6.07;;;19.80;98.50;;;;;;5032145;28;20053;-79
2023/08/18 10:15:17;;;;;;;10.57;4.97;;;19.90;98.70;;;;;;5026595;28;20045;-79
2023/08/18 10:17:43;;;;;;;10.25;5.50;;;19.90;98.40;;;;;;5026049;28;20045;-79
2023/08/18 10:20:11;;;;;;;11.20;5.25;;;19.90;98.20;;;;;;5037521;28;20072;-79
2023/08/18 10:22:44;;;;;;;10.10;5.38;;;20.00;98.10;;;;;;5024228;28;20052;-79
2023/08/18 10:25:23;;;;;;;11.40;5.68;;;20.00;98.20;;;;;;5028816;28;20472;-79
2023/08/18 10:27:49;;;;;;;10.65;5.22;;;20.00;98.10;;;;;;5022572;28;20049;-79
2023/08/18 10:30:15;;;;;;;9.57;4.97;;;20.00;98.10;;;;;;5020800;28;20075;-79
2023/08/18 10:32:42;;;;;;;8.88;4.70;;;20.10;97.90;;;;;;5024548;28;20095;-79
2023/08/18 10:35:24;;;;;;;8.80;4.57;;;20.10;98.00;;;;;;5026985;28;20041;-79
2023/08/18 10:38:13;;;;;;;9.27;5.15;;;20.10;97.60;;;;;;5022594;28;20103;-79
2023/08/18 10:40:39;;;;;;;9.55;5.32;;;20.10;97.70;;;;;;5025937;28;20034;-80
2023/08/18 10:43:12;;;;;;;10.30;5.55;;;20.20;98.00;;;;;;5023860;28;20045;-79
2023/08/18 10:45:40;;;;;;;10.00;5.50;;;20.20;98.00;;;;;;5029939;28;20038;-79
2023/08/18 10:48:07;;;;;;;12.30;6.40;;;20.30;98.00;;;;;;5031783;28;20132;-79
2023/08/18 10:50:39;;;;;;;9.63;5.53;;;20.40;98.50;;;;;;5018299;28;20058;-79
2023/08/18 10:53:04;;;;;;;12.48;6.00;;;20.40;98.20;;;;;;5033781;28;20041;-79
2023/08/18 10:55:33;;;;;;;11.25;7.15;;;20.40;98.50;;;;;;5044070;28;20455;-79
2023/08/18 10:57:59;;;;;;;13.60;7.35;;;20.50;98.70;;;;;;5039856;28;20065;-79
2023/08/18 11:00:31;;;;;;;9.13;4.78;;;20.50;98.90;;;;;;5032542;28;20057;-79
2023/08/18 11:02:57;;;;;;;11.25;6.43;;;20.60;98.40;;;;;;5034053;28;20048;-79
2023/08/18 11:05:23;;;;;;;11.75;6.80;;;20.60;98.30;;;;;;5035861;28;20386;-79
2023/08/18 11:07:52;;;;;;;11.10;5.85;;;20.70;98.40;;;;;;5032586;28;20534;-79
2023/08/18 11:10:22;;;;;;;8.07;5.00;;;20.70;98.20;;;;;;5040912;28;20044;-79
2023/08/18 11:12:50;;;;;;;10.00;6.18;;;20.70;97.80;;;;;;5036398;28;20120;-79
2023/08/18 11:15:19;;;;;;;8.27;4.82;;;20.80;98.20;;;;;;5032988;28;20077;-79
2023/08/18 11:17:44;;;;;;;10.68;5.43;;;20.80;97.70;;;;;;5034207;28;20491;-79
2023/08/18 11:20:13;;;;;;;8.18;4.85;;;20.90;97.80;;;;;;5027837;28;20044;-79
2023/08/18 11:22:40;;;;;;;9.38;4.95;;;20.90;97.70;;;;;;5036104;28;20487;-79
2023/08/18 11:25:06;;;;;;;8.38;5.30;;;20.90;97.50;;;;;;5031056;28;20144;-78
2023/08/18 11:27:32;;;;;;;8.38;5.20;;;21.00;97.80;;;;;;5034462;28;20049;-79
2023/08/18 11:30:04;;;;;;;9.48;5.80;;;21.00;97.40;;;;;;5032616;28;20516;-79
2023/08/18 11:32:31;;;;;;;11.77;6.75;;;21.10;97.70;;;;;;5022181;28;20053;-79
2023/08/18 11:34:57;;;;;;;11.48;6.88;;;21.20;98.00;;;;;;5034325;28;20045;-78
2023/08/18 11:37:23;;;;;;;10.52;6.78;;;21.30;98.50;;;;;;5036492;28;20041;-79
2023/08/18 11:39:49;;;;;;;14.88;7.43;;;21.40;98.60;;;;;;5036404;28;20053;-79
2023/08/18 11:42:15;;;;;;;11.40;6.00;;;21.40;98.90;;;;;;5034445;28;20046;-79
2023/08/18 11:44:41;;;;;;;8.70;5.53;;;21.50;98.60;;;;;;5041815;28;20092;-80
2023/08/18 11:47:08;;;;;;;9.02;5.95;;;21.50;98.20;;;;;;5036450;28;20045;-79
2023/08/18 11:49:35;;;;;;;11.27;6.40;;;21.60;97.80;;;;;;5047055;28;20371;-79
2023/08/18 11:52:06;;;;;;;10.80;6.40;;;21.70;97.90;;;;;;5014071;28;20494;-79
2023/08/18 11:54:36;;;;;;;10.52;6.10;;;21.80;97.80;;;;;;5027404;28;20083;-79
2023/08/18 11:57:05;;;;;;;11.35;6.22;;;21.80;97.90;;;;;;5034131;28;20060;-80
2023/08/18 11:59:32;;;;;;;7.60;5.07;;;21.90;98.10;;;;;;5032461;28;20514;-80
2023/08/18 12:02:00;;;;;;;9.55;5.90;;;22.00;97.70;;;;;;5032150;28;20049;-80
2023/08/18 12:04:26;;;;;;;9.60;5.30;;;22.10;97.40;;;;;;5032580;28;20053;-81
2023/08/18 12:06:52;;;;;;;13.90;7.28;;;22.20;97.20;;;;;;5034135;28;20111;-80
2023/08/18 12:09:19;;;;;;;10.75;7.28;;;22.20;97.70;;;;;;5034102;28;20049;-81
2023/08/18 12:11:45;;;;;;;11.75;6.72;;;22.40;98.00;;;;;;5033147;28;20045;-81
2023/08/18 12:14:11;;;;;;;12.38;7.28;;;22.40;97.80;;;;;;5033530;28;20075;-79
2023/08/18 12:16:36;;;;;;;11.88;6.97;;;22.50;97.70;;;;;;5032190;28;20453;-80
2023/08/18 12:19:05;;;;;;;10.85;7.05;;;22.50;97.60;;;;;;5033180;28;20048;-80
2023/08/18 12:21:32;;;;;;;11.05;6.35;;;22.60;97.50;;;;;;5033441;28;20038;-80
2023/08/18 12:23:59;;;;;;;9.98;6.65;;;22.60;97.60;;;;;;5037947;28;20372;-81
2023/08/18 12:26:25;;;;;;;8.13;5.43;;;22.60;97.20;;;;;;5033079;28;20075;-80
2023/08/18 12:28:50;;;;;;;10.32;5.68;;;22.70;97.00;;;;;;5034639;28;20491;-80
2023/08/18 12:31:19;;;;;;;8.55;6.05;;;22.70;96.90;;;;;;5030852;28;20045;-80
2023/08/18 12:33:45;;;;;;;10.70;6.80;;;22.80;96.90;;;;;;5032647;28;20496;-80
2023/08/18 12:36:10;;;;;;;8.30;6.68;;;22.90;97.30;;;;;;5016101;28;20144;-80
2023/08/18 12:38:36;;;;;;;10.60;6.70;;;22.90;97.30;;;;;;5033306;28;20080;-80
2023/08/18 12:41:03;;;;;;;8.57;6.20;;;23.00;97.40;;;;;;5035047;28;20093;-80